createdAt,value
2018-12-22T00:01:43.507Z,3.30
2018-12-22T00:04:11.903Z,3.30
2018-12-22T00:06:40.367Z,3.30
2018-12-22T00:09:08.140Z,3.20
2018-12-22T00:11:45.900Z,3.20
2018-12-22T00:14:14.612Z,3.10
2018-12-22T00:16:42.821Z,3.00
2018-12-22T00:19:10.467Z,2.80
2018-12-22T00:21:38.199Z,2.80
2018-12-22T00:24:05.871Z,2.70
2018-12-22T00:26:33.596Z,2.60
2018-12-22T00:29:01.308Z,2.50
2018-12-22T00:31:29.113Z,2.50
2018-12-22T00:33:56.833Z,2.40
2018-12-22T00:36:24.578Z,2.30
2018-12-22T00:38:52.294Z,2.40
2018-12-22T00:41:19.994Z,2.40
2018-12-22T00:43:47.730Z,2.40
2018-12-22T00:46:15.409Z,2.40
2018-12-22T00:48:43.135Z,2.40
2018-12-22T00:51:10.820Z,2.40
2018-12-22T00:53:38.528Z,2.50
2018-12-22T00:56:06.257Z,2.50
2018-12-22T00:58:33.971Z,2.50
2018-12-22T01:01:01.710Z,2.50
2018-12-22T01:03:29.443Z,2.50
2018-12-22T01:05:57.161Z,2.50
2018-12-22T01:08:24.861Z,2.50
2018-12-22T01:10:52.603Z,2.50
2018-12-22T01:13:20.311Z,2.50
2018-12-22T01:15:48.062Z,2.50
2018-12-22T01:18:15.719Z,2.60
2018-12-22T01:20:43.470Z,2.60
2018-12-22T01:23:11.219Z,2.60
2018-12-22T01:25:38.907Z,2.60
2018-12-22T01:28:06.640Z,2.50
2018-12-22T01:30:34.394Z,2.50
2018-12-22T01:33:02.048Z,2.50
2018-12-22T01:35:29.799Z,2.60
2018-12-22T01:37:57.497Z,2.60
2018-12-22T01:40:25.235Z,2.60
2018-12-22T01:42:52.961Z,2.60
2018-12-22T01:45:20.667Z,2.50
2018-12-22T01:47:48.375Z,2.50
2018-12-22T01:50:16.039Z,2.60
2018-12-22T01:52:43.760Z,2.80
2018-12-22T01:55:11.588Z,2.90
2018-12-22T01:57:39.326Z,2.90
2018-12-22T02:00:08.083Z,2.90
2018-12-22T02:02:35.802Z,2.80
2018-12-22T02:05:04.505Z,2.70
2018-12-22T02:07:32.251Z,2.70
2018-12-22T02:09:59.938Z,2.60
2018-12-22T02:12:27.618Z,2.60
2018-12-22T02:14:55.336Z,2.60
2018-12-22T02:17:23.078Z,2.70
2018-12-22T02:19:50.830Z,2.80
2018-12-22T02:22:18.660Z,2.90
2018-12-22T02:24:46.330Z,2.90
2018-12-22T02:27:14.081Z,3.00
2018-12-22T02:29:45.338Z,3.00
2018-12-22T02:32:13.103Z,2.90
2018-12-22T02:34:40.788Z,2.90
2018-12-22T02:37:08.543Z,2.80
2018-12-22T02:39:36.257Z,2.70
2018-12-22T02:42:03.954Z,2.80
2018-12-22T02:44:31.797Z,2.80
2018-12-22T02:46:59.521Z,3.10
2018-12-22T02:49:27.292Z,3.50
2018-12-22T02:51:54.987Z,3.50
2018-12-22T02:54:22.709Z,3.60
2018-12-22T02:56:50.382Z,3.70
2018-12-22T02:59:18.133Z,3.80
2018-12-22T03:01:45.849Z,4.00
2018-12-22T03:04:13.577Z,4.30
2018-12-22T03:06:41.262Z,4.60
2018-12-22T03:09:08.994Z,4.90
2018-12-22T03:11:36.699Z,5.60
2018-12-22T03:14:04.497Z,6.20
2018-12-22T03:16:35.773Z,6.50
2018-12-22T03:19:03.553Z,6.90
2018-12-22T03:21:31.263Z,7.20
2018-12-22T03:23:59.038Z,7.20
2018-12-22T03:26:26.802Z,6.80
2018-12-22T03:28:54.551Z,6.30
2018-12-22T03:31:22.211Z,6.00
2018-12-22T03:33:49.942Z,5.60
2018-12-22T03:36:17.693Z,5.20
2018-12-22T03:38:45.439Z,4.90
2018-12-22T03:41:13.165Z,4.60
2018-12-22T03:43:40.923Z,4.30
2018-12-22T03:46:08.802Z,4.10
2018-12-22T03:48:36.488Z,3.80
2018-12-22T03:51:04.371Z,3.70
2018-12-22T03:53:32.041Z,3.60
2018-12-22T03:55:59.784Z,3.50
2018-12-22T03:58:27.492Z,3.40
2018-12-22T04:00:55.189Z,3.40
2018-12-22T04:03:22.929Z,3.30
2018-12-22T04:05:50.629Z,3.30
2018-12-22T04:08:18.369Z,3.30
2018-12-22T04:10:46.041Z,3.20
2018-12-22T04:13:13.787Z,3.30
2018-12-22T04:15:41.516Z,3.30
2018-12-22T04:18:09.261Z,3.40
2018-12-22T04:20:36.963Z,3.50
2018-12-22T04:23:04.642Z,3.60
2018-12-22T04:25:32.356Z,3.70
2018-12-22T04:28:00.055Z,3.80
2018-12-22T04:30:27.785Z,3.90
2018-12-22T04:32:55.526Z,3.90
2018-12-22T04:35:23.256Z,4.00
2018-12-22T04:37:50.970Z,4.90
2018-12-22T04:40:18.711Z,5.10
2018-12-22T04:42:46.432Z,5.20
2018-12-22T04:45:14.700Z,5.20
2018-12-22T04:47:42.408Z,5.80
2018-12-22T04:50:10.129Z,6.20
2018-12-22T04:52:37.863Z,6.80
2018-12-22T04:55:05.630Z,7.30
2018-12-22T04:57:33.372Z,7.70
2018-12-22T05:00:01.052Z,8.00
2018-12-22T05:02:28.795Z,8.10
2018-12-22T05:04:56.463Z,8.20
2018-12-22T05:07:24.191Z,8.00
2018-12-22T05:09:51.886Z,7.70
2018-12-22T05:12:19.668Z,7.40
2018-12-22T05:14:47.321Z,7.10
2018-12-22T05:17:15.085Z,6.80
2018-12-22T05:19:42.841Z,6.50
2018-12-22T05:22:10.574Z,6.40
2018-12-22T05:24:38.307Z,6.70
2018-12-22T05:27:05.994Z,7.00
2018-12-22T05:29:33.701Z,7.10
2018-12-22T05:32:01.441Z,7.10
2018-12-22T05:34:36.782Z,6.90
2018-12-22T05:37:05.882Z,6.70
2018-12-22T05:39:33.654Z,6.40
2018-12-22T05:42:01.371Z,6.10
2018-12-22T05:44:29.145Z,5.90
2018-12-22T05:46:57.745Z,5.60
2018-12-22T05:49:25.495Z,5.40
2018-12-22T05:51:53.206Z,5.30
2018-12-22T05:54:20.975Z,5.30
2018-12-22T05:56:48.671Z,5.20
2018-12-22T05:59:16.457Z,5.10
2018-12-22T06:01:44.224Z,5.00
2018-12-22T06:04:12.131Z,4.90
2018-12-22T06:06:39.956Z,4.90
2018-12-22T06:09:07.754Z,5.00
2018-12-22T06:11:35.458Z,5.00
2018-12-22T06:14:03.179Z,5.10
2018-12-22T06:16:30.884Z,5.10
2018-12-22T06:18:58.619Z,5.00
2018-12-22T06:21:30.670Z,4.80
2018-12-22T06:23:58.360Z,4.60
2018-12-22T06:26:26.099Z,4.50
2018-12-22T06:28:53.867Z,4.50
2018-12-22T06:31:21.675Z,4.40
2018-12-22T06:33:49.425Z,4.40
2018-12-22T06:36:17.179Z,4.40
2018-12-22T06:38:44.921Z,4.70
2018-12-22T06:41:12.636Z,4.80
2018-12-22T06:43:40.399Z,4.70
2018-12-22T06:46:08.130Z,4.90
2018-12-22T06:48:36.098Z,5.00
2018-12-22T06:51:03.850Z,5.00
2018-12-22T06:53:31.649Z,5.20
2018-12-22T06:55:59.404Z,5.60
2018-12-22T06:58:27.140Z,6.20
2018-12-22T07:00:54.885Z,6.30
2018-12-22T07:03:22.650Z,6.20
2018-12-22T07:05:50.363Z,6.20
2018-12-22T07:08:22.633Z,5.90
2018-12-22T07:10:50.366Z,5.70
2018-12-22T07:13:18.154Z,5.80
2018-12-22T07:15:45.887Z,6.30
2018-12-22T07:18:13.591Z,6.80
2018-12-22T07:20:41.353Z,7.10
2018-12-22T07:23:09.099Z,7.20
2018-12-22T07:25:36.795Z,7.30
2018-12-22T07:28:04.558Z,7.20
2018-12-22T07:30:32.296Z,7.10
2018-12-22T07:33:00.111Z,7.00
2018-12-22T07:35:27.860Z,6.80
2018-12-22T07:37:55.597Z,6.70
2018-12-22T07:40:23.280Z,6.60
2018-12-22T07:42:51.088Z,6.40
2018-12-22T07:45:18.874Z,6.30
2018-12-22T07:47:46.616Z,6.10
2018-12-22T07:50:14.330Z,6.00
2018-12-22T07:52:42.043Z,5.90
2018-12-22T07:55:21.788Z,5.80
2018-12-22T07:57:50.014Z,5.80
2018-12-22T08:00:17.806Z,5.70
2018-12-22T08:02:45.594Z,5.70
2018-12-22T08:05:13.310Z,5.90
2018-12-22T08:07:41.064Z,6.20
2018-12-22T08:10:08.848Z,6.40
2018-12-22T08:12:36.633Z,6.60
2018-12-22T08:15:04.535Z,6.80
2018-12-22T08:17:32.346Z,7.00
2018-12-22T08:20:00.150Z,7.20
2018-12-22T08:22:27.970Z,7.40
2018-12-22T08:24:55.763Z,7.40
2018-12-22T08:27:23.496Z,7.40
2018-12-22T08:29:51.298Z,7.50
2018-12-22T08:32:19.100Z,7.60
2018-12-22T08:34:46.828Z,7.60
2018-12-22T08:37:14.686Z,7.50
2018-12-22T08:39:42.445Z,7.50
2018-12-22T08:42:10.351Z,7.40
2018-12-22T08:44:38.078Z,7.40
2018-12-22T08:47:05.890Z,7.40
2018-12-22T08:49:33.653Z,7.50
2018-12-22T08:52:01.469Z,7.50
2018-12-22T08:54:29.276Z,7.60
2018-12-22T08:56:57.018Z,7.70
2018-12-22T08:59:24.787Z,7.70
2018-12-22T09:01:52.550Z,7.70
2018-12-22T09:04:20.390Z,7.60
2018-12-22T09:06:48.149Z,7.50
2018-12-22T09:09:16.082Z,7.70
2018-12-22T09:11:44.005Z,7.70
2018-12-22T09:14:11.825Z,7.60
2018-12-22T09:16:39.645Z,7.70
2018-12-22T09:19:07.444Z,7.80
2018-12-22T09:21:35.285Z,7.80
2018-12-22T09:24:03.155Z,7.80
2018-12-22T09:26:30.978Z,7.90
2018-12-22T09:28:58.776Z,7.90
2018-12-22T09:31:26.549Z,7.90
2018-12-22T09:33:54.370Z,7.90
2018-12-22T09:36:22.154Z,8.00
2018-12-22T09:38:49.995Z,7.90
2018-12-22T09:41:17.989Z,7.90
2018-12-22T09:43:45.776Z,8.00
2018-12-22T09:46:13.606Z,8.00
2018-12-22T09:48:41.388Z,8.10
2018-12-22T09:51:09.250Z,8.10
2018-12-22T09:53:37.015Z,8.00
2018-12-22T09:56:04.871Z,7.90
2018-12-22T09:58:46.488Z,7.90
2018-12-22T10:01:21.901Z,7.70
2018-12-22T10:04:03.909Z,7.50
2018-12-22T10:06:31.843Z,7.40
2018-12-22T10:08:59.569Z,7.40
2018-12-22T10:11:27.449Z,7.40
2018-12-22T10:13:55.237Z,7.80
2018-12-22T10:16:23.028Z,8.10
2018-12-22T10:18:50.769Z,8.30
2018-12-22T10:21:18.531Z,8.40
2018-12-22T10:23:46.297Z,8.70
2018-12-22T10:26:14.019Z,8.80
2018-12-22T10:28:41.775Z,8.80
2018-12-22T10:31:17.694Z,8.80
2018-12-22T10:33:39.179Z,8.80
2018-12-22T10:36:06.894Z,8.70
2018-12-22T10:38:34.591Z,8.60
2018-12-22T10:41:02.348Z,8.60
2018-12-22T10:43:30.092Z,8.70
2018-12-22T10:45:58.483Z,8.80
2018-12-22T10:48:26.209Z,8.80
2018-12-22T10:50:53.944Z,8.70
2018-12-22T10:53:21.694Z,8.60
2018-12-22T10:55:49.418Z,8.50
2018-12-22T10:58:17.134Z,8.30
2018-12-22T11:00:44.912Z,8.20
2018-12-22T11:03:12.615Z,8.20
2018-12-22T11:05:40.443Z,8.20
2018-12-22T11:08:08.184Z,8.20
2018-12-22T11:10:35.965Z,8.20
2018-12-22T11:13:03.703Z,8.10
2018-12-22T11:15:31.448Z,8.10
2018-12-22T11:17:59.137Z,8.10
2018-12-22T11:20:26.849Z,8.20
2018-12-22T11:22:54.592Z,8.20
2018-12-22T11:25:22.276Z,8.30
2018-12-22T11:30:24.672Z,8.50
2018-12-22T11:32:52.329Z,8.60
2018-12-22T11:35:20.100Z,8.70
2018-12-22T11:37:47.851Z,8.80
2018-12-22T11:40:15.585Z,8.80
2018-12-22T11:42:47.513Z,8.70
2018-12-22T11:45:13.103Z,8.80
2018-12-22T11:47:43.370Z,8.70
2018-12-22T11:50:19.794Z,8.70
2018-12-22T11:52:47.555Z,8.80
2018-12-22T11:55:15.300Z,8.80
2018-12-22T11:57:43.697Z,8.80
2018-12-22T12:00:11.445Z,8.90
2018-12-22T12:02:39.194Z,8.80
2018-12-22T12:05:09.572Z,8.80
2018-12-22T12:07:37.369Z,8.80
2018-12-22T12:10:08.076Z,8.80
2018-12-22T12:12:35.846Z,8.80
2018-12-22T12:15:07.687Z,8.80
2018-12-22T12:17:39.488Z,8.80
2018-12-22T12:20:07.331Z,8.80
2018-12-22T12:22:35.091Z,8.80
2018-12-22T12:25:02.868Z,8.80
2018-12-22T12:27:30.582Z,8.80
2018-12-22T12:29:58.374Z,8.70
2018-12-22T12:32:26.078Z,8.60
2018-12-22T12:34:53.822Z,8.60
2018-12-22T12:37:21.534Z,8.60
2018-12-22T12:39:49.319Z,8.60
2018-12-22T12:42:17.063Z,8.60
2018-12-22T12:44:44.785Z,8.50
2018-12-22T12:47:12.642Z,8.40
2018-12-22T12:49:40.368Z,8.40
2018-12-22T12:52:08.103Z,8.40
2018-12-22T12:54:35.864Z,8.30
2018-12-22T12:57:03.709Z,8.40
2018-12-22T12:59:31.532Z,8.50
2018-12-22T13:02:01.332Z,8.50
2018-12-22T13:04:29.065Z,8.60
2018-12-22T13:06:56.851Z,8.60
2018-12-22T13:09:24.598Z,8.70
2018-12-22T13:11:52.364Z,8.70
2018-12-22T13:14:20.050Z,8.70
2018-12-22T13:16:47.857Z,8.80
2018-12-22T13:19:15.639Z,8.70
2018-12-22T13:21:43.335Z,8.60
2018-12-22T13:24:11.135Z,8.50
2018-12-22T13:26:38.829Z,8.50
2018-12-22T13:29:06.569Z,8.50
2018-12-22T13:31:34.306Z,8.50
2018-12-22T13:34:02.051Z,8.60
2018-12-22T13:36:34.603Z,8.60
2018-12-22T13:38:59.709Z,8.70
2018-12-22T13:41:27.449Z,8.70
2018-12-22T13:43:55.158Z,8.80
2018-12-22T13:46:22.940Z,8.90
2018-12-22T13:48:50.855Z,8.90
2018-12-22T13:51:18.939Z,8.90
2018-12-22T13:53:46.765Z,8.80
2018-12-22T13:56:14.576Z,8.80
2018-12-22T13:58:42.360Z,8.80
2018-12-22T14:01:10.155Z,8.90
2018-12-22T14:03:37.943Z,8.90
2018-12-22T14:06:06.578Z,8.90
2018-12-22T14:08:34.312Z,8.90
2018-12-22T14:11:02.058Z,8.90
2018-12-22T14:13:29.822Z,8.80
2018-12-22T14:15:57.589Z,8.70
2018-12-22T14:18:31.355Z,8.70
2018-12-22T14:20:59.101Z,8.70
2018-12-22T14:23:36.660Z,8.70
2018-12-22T14:26:04.446Z,8.70
2018-12-22T14:28:32.194Z,8.70
2018-12-22T14:30:59.919Z,8.70
2018-12-22T14:33:27.660Z,8.90
2018-12-22T14:35:55.385Z,9.00
2018-12-22T14:38:23.157Z,9.00
2018-12-22T14:40:50.865Z,9.00
2018-12-22T14:43:18.583Z,9.00
2018-12-22T14:45:46.304Z,9.00
2018-12-22T14:48:14.152Z,9.00
2018-12-22T14:50:41.903Z,8.90
2018-12-22T14:53:09.629Z,8.90
2018-12-22T14:55:39.745Z,8.90
2018-12-22T14:58:08.009Z,8.90
2018-12-22T15:00:35.785Z,8.90
2018-12-22T15:03:03.562Z,8.80
2018-12-22T15:05:31.338Z,8.80
2018-12-22T15:07:59.127Z,8.80
2018-12-22T15:10:27.505Z,8.80
2018-12-22T15:12:55.248Z,8.80
2018-12-22T15:15:22.958Z,8.80
2018-12-22T15:17:50.679Z,8.90
2018-12-22T15:20:25.484Z,8.90
2018-12-22T15:22:53.269Z,8.80
2018-12-22T15:25:20.988Z,8.90
2018-12-22T15:27:48.752Z,8.90
2018-12-22T15:30:16.494Z,8.90
2018-12-22T15:32:53.979Z,8.90
2018-12-22T15:35:14.037Z,8.90
2018-12-22T15:37:41.769Z,8.90
2018-12-22T15:40:11.087Z,8.90
2018-12-22T15:42:39.018Z,8.90
2018-12-22T15:45:12.157Z,8.90
2018-12-22T15:47:40.368Z,8.90
2018-12-22T15:50:11.751Z,8.90
2018-12-22T15:52:39.499Z,8.90
2018-12-22T15:55:08.715Z,8.80
2018-12-22T15:57:36.503Z,8.90
2018-12-22T16:00:08.044Z,8.90
2018-12-22T16:02:35.769Z,8.70
2018-12-22T16:05:04.932Z,8.60
2018-12-22T16:07:32.715Z,8.50
2018-12-22T16:10:00.480Z,8.50
2018-12-22T16:12:28.276Z,8.40
2018-12-22T16:14:56.053Z,8.40
2018-12-22T16:17:23.758Z,8.30
2018-12-22T16:19:51.548Z,8.20
2018-12-22T16:22:19.331Z,8.20
2018-12-22T16:24:47.031Z,8.20
2018-12-22T16:27:14.832Z,8.30
2018-12-22T16:29:42.608Z,8.40
2018-12-22T16:32:10.392Z,8.40
2018-12-22T16:34:38.105Z,8.40
2018-12-22T16:37:05.858Z,8.50
2018-12-22T16:39:33.612Z,8.60
2018-12-22T16:42:01.414Z,8.70
2018-12-22T16:44:29.224Z,8.80
2018-12-22T16:46:56.988Z,8.80
2018-12-22T16:49:24.792Z,8.90
2018-12-22T16:51:52.694Z,9.00
2018-12-22T16:54:20.573Z,9.00
2018-12-22T16:56:48.407Z,9.00
2018-12-22T16:59:16.194Z,9.00
2018-12-22T17:01:44.033Z,8.90
2018-12-22T17:04:12.061Z,8.80
2018-12-22T17:06:39.983Z,8.70
2018-12-22T17:09:07.729Z,8.50
2018-12-22T17:11:35.577Z,8.30
2018-12-22T17:14:03.379Z,8.20
2018-12-22T17:16:31.212Z,8.10
2018-12-22T17:18:58.989Z,7.80
2018-12-22T17:21:26.755Z,7.60
2018-12-22T17:23:58.267Z,7.40
2018-12-22T17:26:28.481Z,7.30
2018-12-22T17:28:56.191Z,7.10
2018-12-22T17:31:23.999Z,7.10
2018-12-22T17:33:51.890Z,7.10
2018-12-22T17:36:19.757Z,7.00
2018-12-22T17:38:47.519Z,7.00
2018-12-22T17:41:15.389Z,7.00
2018-12-22T17:43:43.170Z,6.90
2018-12-22T17:46:11.041Z,7.00
2018-12-22T17:48:38.784Z,6.90
2018-12-22T17:51:06.560Z,6.80
2018-12-22T17:53:34.397Z,6.70
2018-12-22T17:56:02.130Z,6.60
2018-12-22T17:58:29.950Z,6.60
2018-12-22T18:01:01.059Z,6.60
2018-12-22T18:03:28.938Z,6.60
2018-12-22T18:05:56.801Z,6.70
2018-12-22T18:08:24.661Z,6.60
2018-12-22T18:10:52.531Z,6.70
2018-12-22T18:13:20.373Z,6.60
2018-12-22T18:15:48.164Z,6.70
2018-12-22T18:18:15.982Z,6.80
2018-12-22T18:20:43.781Z,6.80
2018-12-22T18:23:11.500Z,6.80
2018-12-22T18:25:39.407Z,6.70
2018-12-22T18:28:07.274Z,6.80
2018-12-22T18:30:35.163Z,6.80
2018-12-22T18:33:03.030Z,6.80
2018-12-22T18:35:30.814Z,6.70
2018-12-22T18:37:58.643Z,6.70
2018-12-22T18:40:26.516Z,6.70
2018-12-22T18:42:54.355Z,6.70
2018-12-22T18:45:22.339Z,6.70
2018-12-22T18:47:50.079Z,6.70
2018-12-22T18:50:21.730Z,6.80
2018-12-22T18:52:49.590Z,6.80
2018-12-22T18:55:17.427Z,6.80
2018-12-22T18:57:47.689Z,6.80
2018-12-22T19:00:18.962Z,6.80
2018-12-22T19:02:46.911Z,6.80
2018-12-22T19:05:15.818Z,6.80
2018-12-22T19:07:43.651Z,6.90
2018-12-22T19:10:23.570Z,7.00
2018-12-22T19:12:51.416Z,7.00
2018-12-22T19:15:19.306Z,7.00
2018-12-22T19:17:47.087Z,7.00
2018-12-22T19:20:19.352Z,6.90
2018-12-22T19:22:47.233Z,6.90
2018-12-22T19:25:15.003Z,6.80
2018-12-22T19:27:42.870Z,6.80
2018-12-22T19:30:10.702Z,6.80
2018-12-22T19:32:38.498Z,6.80
2018-12-22T19:35:06.659Z,6.80
2018-12-22T19:37:34.469Z,6.70
2018-12-22T19:40:02.318Z,6.70
2018-12-22T19:42:30.116Z,6.70
2018-12-22T19:44:58.006Z,6.80
2018-12-22T19:47:25.853Z,6.90
2018-12-22T19:49:53.775Z,6.90
2018-12-22T19:52:21.622Z,7.00
2018-12-22T19:54:49.477Z,7.00
2018-12-22T19:57:17.289Z,7.00
2018-12-22T19:59:45.128Z,7.10
2018-12-22T20:02:12.975Z,7.00
2018-12-22T20:04:40.842Z,7.00
2018-12-22T20:07:08.646Z,7.10
2018-12-22T20:09:36.690Z,7.20
2018-12-22T20:12:04.564Z,7.30
2018-12-22T20:14:32.464Z,7.40
2018-12-22T20:17:00.386Z,7.40
2018-12-22T20:19:30.362Z,7.50
2018-12-22T20:21:58.352Z,7.50
2018-12-22T20:24:26.175Z,7.60
2018-12-22T20:26:54.081Z,7.50
2018-12-22T20:29:21.943Z,7.50
2018-12-22T20:31:49.765Z,7.40
2018-12-22T20:34:17.510Z,7.40
2018-12-22T20:36:45.223Z,7.40
2018-12-22T20:39:13.095Z,7.40
2018-12-22T20:41:40.939Z,7.40
2018-12-22T20:44:08.723Z,7.40
2018-12-22T20:46:36.667Z,7.40
2018-12-22T20:49:04.465Z,7.50
2018-12-22T20:51:32.333Z,7.50
2018-12-22T20:54:00.170Z,7.50
2018-12-22T20:56:27.946Z,7.50
2018-12-22T20:58:55.773Z,7.40
2018-12-22T21:01:23.667Z,7.40
2018-12-22T21:03:51.561Z,7.30
2018-12-22T21:06:22.324Z,7.40
2018-12-22T21:08:50.244Z,7.50
2018-12-22T21:11:18.066Z,7.50
2018-12-22T21:13:45.863Z,7.50
2018-12-22T21:16:13.613Z,7.40
2018-12-22T21:18:41.400Z,7.40
2018-12-22T21:21:09.325Z,7.30
2018-12-22T21:23:37.130Z,7.30
2018-12-22T21:26:04.904Z,7.40
2018-12-22T21:28:32.847Z,7.40
2018-12-22T21:31:00.620Z,7.40
2018-12-22T21:33:28.455Z,7.50
2018-12-22T21:35:56.239Z,7.50
2018-12-22T21:38:24.219Z,7.40
2018-12-22T21:40:53.103Z,7.40
2018-12-22T21:43:20.943Z,7.30
2018-12-22T21:45:48.731Z,7.30
2018-12-22T21:48:16.377Z,7.30
2018-12-22T21:50:44.107Z,7.30
2018-12-22T21:53:12.034Z,7.20
2018-12-22T21:55:39.780Z,7.20
2018-12-22T21:58:07.592Z,7.30
2018-12-22T22:00:35.322Z,7.30
2018-12-22T22:03:03.137Z,7.30
2018-12-22T22:05:30.875Z,7.40
2018-12-22T22:07:58.592Z,7.40
2018-12-22T22:10:26.364Z,7.40
2018-12-22T22:12:54.046Z,7.30
2018-12-22T22:15:21.830Z,7.30
2018-12-22T22:17:49.585Z,7.20
2018-12-22T22:20:17.354Z,7.20
2018-12-22T22:22:45.083Z,7.20
2018-12-22T22:25:12.806Z,7.20
2018-12-22T22:27:40.511Z,7.20
2018-12-22T22:30:08.288Z,7.20
2018-12-22T22:32:36.039Z,7.10
2018-12-22T22:35:03.955Z,7.10
2018-12-22T22:37:31.622Z,7.00
2018-12-22T22:39:59.355Z,7.00
2018-12-22T22:42:27.081Z,7.10
2018-12-22T22:44:54.784Z,7.10
2018-12-22T22:47:22.510Z,7.20
2018-12-22T22:49:50.202Z,7.20
2018-12-22T22:52:17.891Z,7.30
2018-12-22T22:54:45.603Z,7.20
2018-12-22T22:57:13.400Z,7.30
2018-12-22T22:59:41.084Z,7.30
2018-12-22T23:02:08.832Z,7.30
2018-12-22T23:04:36.496Z,7.40
2018-12-22T23:07:04.290Z,7.40
2018-12-22T23:09:32.029Z,7.40
2018-12-22T23:11:59.685Z,7.50
2018-12-22T23:14:27.389Z,7.50
2018-12-22T23:16:55.124Z,7.50
2018-12-22T23:19:22.870Z,7.50
2018-12-22T23:21:50.624Z,7.40
2018-12-22T23:24:18.449Z,7.40
2018-12-22T23:26:46.146Z,7.40
2018-12-22T23:29:13.854Z,7.50
2018-12-22T23:31:41.569Z,7.40
2018-12-22T23:34:09.279Z,7.40
2018-12-22T23:36:37.035Z,7.40
2018-12-22T23:39:05.721Z,7.30
2018-12-22T23:41:33.388Z,7.30
2018-12-22T23:44:01.053Z,7.30
2018-12-22T23:46:28.766Z,7.30
2018-12-22T23:48:56.408Z,7.30
2018-12-22T23:51:24.111Z,7.30
2018-12-22T23:53:51.767Z,7.30
2018-12-22T23:56:19.480Z,7.30
2018-12-22T23:58:47.135Z,7.30
